createdAt,value
2019-02-16T00:00:26.482Z,24.13
2019-02-16T00:02:55.103Z,23.93
2019-02-16T00:05:23.662Z,27.80
2019-02-16T00:07:52.243Z,31.53
2019-02-16T00:10:20.899Z,32.70
2019-02-16T00:12:49.510Z,31.77
2019-02-16T00:15:19.008Z,29.30
2019-02-16T00:17:47.640Z,30.17
2019-02-16T00:20:16.308Z,30.80
2019-02-16T00:22:44.888Z,29.37
2019-02-16T00:25:13.517Z,30.27
2019-02-16T00:27:42.100Z,29.37
2019-02-16T00:30:10.703Z,30.43
2019-02-16T00:32:39.353Z,30.80
2019-02-16T00:35:07.982Z,30.90
2019-02-16T00:37:36.573Z,30.97
2019-02-16T00:40:07.577Z,31.93
2019-02-16T00:42:36.206Z,31.23
2019-02-16T00:45:06.438Z,29.63
2019-02-16T00:47:35.015Z,26.97
2019-02-16T00:50:03.751Z,27.70
2019-02-16T00:52:32.344Z,30.57
2019-02-16T00:55:00.899Z,30.40
2019-02-16T00:57:29.457Z,29.80
2019-02-16T00:59:58.075Z,29.57
2019-02-16T01:02:26.640Z,29.27
2019-02-16T01:04:55.262Z,27.87
2019-02-16T01:07:23.828Z,26.57
2019-02-16T01:09:52.412Z,27.50
2019-02-16T01:12:21.121Z,25.93
2019-02-16T01:14:49.712Z,27.40
2019-02-16T01:17:18.275Z,30.23
2019-02-16T01:19:47.069Z,28.53
2019-02-16T01:22:15.841Z,27.47
2019-02-16T01:24:44.492Z,30.07
2019-02-16T01:27:13.051Z,29.67
2019-02-16T01:29:41.640Z,29.27
2019-02-16T01:32:10.196Z,31.73
2019-02-16T01:34:38.784Z,31.53
2019-02-16T01:37:07.404Z,32.33
2019-02-16T01:39:35.987Z,34.93
2019-02-16T01:42:04.549Z,31.43
2019-02-16T01:44:33.130Z,29.83
2019-02-16T01:47:01.689Z,30.27
2019-02-16T01:49:30.276Z,31.13
2019-02-16T01:51:58.836Z,28.23
2019-02-16T01:54:27.428Z,27.33
2019-02-16T01:56:55.985Z,29.03
2019-02-16T01:59:24.571Z,27.17
2019-02-16T02:01:53.134Z,29.50
2019-02-16T02:04:21.732Z,29.03
2019-02-16T02:06:50.293Z,28.00
2019-02-16T02:09:19.049Z,29.13
2019-02-16T02:11:47.618Z,29.43
2019-02-16T02:14:16.251Z,29.23
2019-02-16T02:16:44.764Z,30.13
2019-02-16T02:19:13.348Z,28.47
2019-02-16T02:21:41.922Z,33.20
2019-02-16T02:24:10.503Z,36.93
2019-02-16T02:26:39.140Z,39.20
2019-02-16T02:29:07.705Z,37.13
2019-02-16T02:31:37.598Z,38.40
2019-02-16T02:34:06.256Z,37.23
2019-02-16T02:36:34.845Z,34.03
2019-02-16T02:39:04.847Z,31.73
2019-02-16T02:41:33.437Z,32.10
2019-02-16T02:44:01.991Z,28.73
2019-02-16T02:46:30.578Z,28.97
2019-02-16T02:48:59.142Z,27.87
2019-02-16T02:51:27.732Z,27.10
2019-02-16T02:53:56.291Z,28.40
2019-02-16T02:56:24.877Z,28.47
2019-02-16T02:58:53.446Z,30.23
2019-02-16T03:01:22.032Z,26.17
2019-02-16T03:03:50.595Z,27.93
2019-02-16T03:06:19.181Z,28.07
2019-02-16T03:08:47.747Z,25.80
2019-02-16T03:11:16.336Z,26.77
2019-02-16T03:13:44.900Z,26.47
2019-02-16T03:16:13.493Z,26.77
2019-02-16T03:18:42.053Z,28.87
2019-02-16T03:21:10.637Z,28.40
2019-02-16T03:23:39.200Z,27.53
2019-02-16T03:26:11.237Z,27.50
2019-02-16T03:28:48.989Z,26.77
2019-02-16T03:31:37.114Z,29.37
2019-02-16T03:34:13.921Z,28.67
2019-02-16T03:37:18.889Z,29.33
2019-02-16T03:39:47.701Z,27.80
2019-02-16T03:42:16.288Z,27.03
2019-02-16T03:44:44.916Z,25.30
2019-02-16T03:47:20.032Z,27.07
2019-02-16T03:49:48.625Z,23.73
2019-02-16T03:52:17.215Z,24.43
2019-02-16T03:54:45.763Z,26.27
2019-02-16T03:57:14.360Z,25.63
2019-02-16T03:59:42.916Z,24.50
2019-02-16T04:02:11.500Z,26.10
2019-02-16T04:04:40.071Z,27.00
2019-02-16T04:07:08.648Z,23.87
2019-02-16T04:09:37.244Z,25.10
2019-02-16T04:12:05.822Z,25.87
2019-02-16T04:14:34.381Z,25.20
2019-02-16T04:17:02.972Z,25.07
2019-02-16T04:19:31.535Z,28.43
2019-02-16T04:22:00.109Z,28.63
2019-02-16T04:24:28.700Z,28.20
2019-02-16T04:26:57.257Z,25.70
2019-02-16T04:29:25.846Z,28.53
2019-02-16T04:31:54.400Z,27.97
2019-02-16T04:34:23.009Z,32.38
2019-02-16T04:36:51.584Z,37.05
2019-02-16T04:39:20.175Z,41.58
2019-02-16T04:41:48.743Z,40.27
2019-02-16T04:44:17.342Z,41.33
2019-02-16T04:46:45.905Z,41.77
2019-02-16T04:49:14.496Z,46.40
2019-02-16T04:51:43.072Z,48.83
2019-02-16T04:54:11.672Z,46.33
2019-02-16T04:56:40.240Z,46.88
2019-02-16T04:59:08.828Z,43.95
2019-02-16T05:01:37.392Z,42.08
2019-02-16T05:04:07.999Z,42.23
2019-02-16T05:06:36.213Z,44.95
2019-02-16T05:09:06.917Z,44.45
2019-02-16T05:11:35.481Z,43.55
2019-02-16T05:14:04.117Z,44.83
2019-02-16T05:16:32.642Z,44.30
2019-02-16T05:19:01.235Z,44.35
2019-02-16T05:21:29.799Z,43.02
2019-02-16T05:23:58.396Z,46.50
2019-02-16T05:26:26.964Z,47.58
2019-02-16T05:28:55.566Z,46.40
2019-02-16T05:31:24.136Z,45.10
2019-02-16T05:33:52.729Z,44.60
2019-02-16T05:36:21.301Z,41.95
2019-02-16T05:38:49.897Z,42.13
2019-02-16T05:41:18.467Z,39.00
2019-02-16T05:43:47.053Z,40.30
2019-02-16T05:46:15.614Z,36.40
2019-02-16T05:48:44.200Z,36.13
2019-02-16T05:51:12.778Z,32.40
2019-02-16T05:53:41.364Z,33.65
2019-02-16T05:56:09.931Z,31.87
2019-02-16T05:58:38.498Z,28.77
2019-02-16T06:01:07.088Z,35.73
2019-02-16T06:03:35.658Z,37.30
2019-02-16T06:06:04.261Z,40.65
2019-02-16T06:08:32.828Z,44.03
2019-02-16T06:11:01.417Z,40.63
2019-02-16T06:13:29.984Z,40.43
2019-02-16T06:15:58.580Z,36.83
2019-02-16T06:18:27.152Z,35.65
2019-02-16T06:20:55.736Z,31.57
2019-02-16T06:23:24.321Z,31.75
2019-02-16T06:25:52.918Z,29.72
2019-02-16T06:28:21.480Z,33.63
2019-02-16T06:30:50.139Z,32.55
2019-02-16T06:33:18.709Z,33.20
2019-02-16T06:35:48.967Z,35.80
2019-02-16T06:38:17.532Z,37.03
2019-02-16T06:40:46.125Z,37.93
2019-02-16T06:43:14.704Z,38.43
2019-02-16T06:45:43.294Z,39.95
2019-02-16T06:48:11.856Z,37.67
2019-02-16T06:50:40.458Z,40.30
2019-02-16T06:53:13.251Z,45.40
2019-02-16T06:55:40.885Z,50.70
2019-02-16T06:58:09.466Z,47.55
2019-02-16T07:00:38.052Z,54.47
2019-02-16T07:03:06.696Z,53.70
2019-02-16T07:05:35.284Z,37.67
2019-02-16T07:08:03.847Z,34.03
2019-02-16T07:10:32.427Z,39.63
2019-02-16T07:13:00.988Z,35.93
2019-02-16T07:15:29.572Z,31.97
2019-02-16T07:17:59.779Z,33.17
2019-02-16T07:20:28.366Z,29.43
2019-02-16T07:22:56.920Z,30.83
2019-02-16T07:25:25.515Z,34.40
2019-02-16T07:27:54.089Z,31.53
2019-02-16T07:30:22.656Z,31.47
2019-02-16T07:32:51.244Z,28.80
2019-02-16T07:35:19.805Z,27.77
2019-02-16T07:37:48.384Z,28.20
2019-02-16T07:40:16.937Z,24.77
2019-02-16T07:42:55.781Z,24.90
2019-02-16T07:45:27.920Z,28.77
2019-02-16T07:47:58.144Z,24.73
2019-02-16T07:50:28.344Z,25.70
2019-02-16T07:53:10.344Z,25.53
2019-02-16T07:55:46.537Z,27.17
2019-02-16T07:58:19.753Z,27.07
2019-02-16T08:00:59.052Z,23.33
2019-02-16T08:03:29.256Z,26.20
2019-02-16T08:06:16.067Z,22.57
2019-02-16T08:08:46.262Z,23.10
2019-02-16T08:11:16.480Z,22.80
2019-02-16T08:13:46.687Z,20.50
2019-02-16T08:16:19.861Z,20.77
2019-02-16T08:18:58.609Z,19.73
2019-02-16T08:21:28.937Z,22.40
2019-02-16T08:24:02.184Z,21.63
2019-02-16T08:26:35.469Z,23.23
2019-02-16T08:29:41.526Z,21.23
2019-02-16T08:32:11.749Z,21.83
2019-02-16T08:34:59.861Z,22.13
2019-02-16T08:37:36.344Z,25.60
2019-02-16T08:40:19.537Z,23.93
2019-02-16T08:43:07.862Z,25.17
2019-02-16T08:45:38.054Z,26.97
2019-02-16T08:48:17.628Z,24.67
2019-02-16T08:50:50.731Z,23.67
2019-02-16T08:53:20.963Z,23.53
2019-02-16T08:55:51.162Z,23.63
2019-02-16T08:58:23.968Z,23.13
2019-02-16T09:00:57.107Z,23.53
2019-02-16T09:03:27.328Z,22.10
2019-02-16T09:05:57.524Z,21.93
2019-02-16T09:08:27.748Z,21.77
2019-02-16T09:11:00.918Z,22.33
2019-02-16T09:13:31.121Z,23.23
2019-02-16T09:16:01.316Z,21.90
2019-02-16T09:18:31.532Z,22.40
2019-02-16T09:21:14.498Z,22.57
2019-02-16T09:23:39.415Z,22.43
2019-02-16T09:26:09.632Z,21.63
2019-02-16T09:28:39.853Z,22.20
2019-02-16T09:31:13.263Z,21.87
2019-02-16T09:33:45.903Z,23.53
2019-02-16T09:36:16.087Z,21.73
2019-02-16T09:38:49.045Z,22.97
2019-02-16T09:41:19.239Z,24.77
2019-02-16T09:43:54.927Z,26.20
2019-02-16T09:46:47.248Z,22.17
2019-02-16T09:49:22.930Z,21.43
2019-02-16T09:52:08.584Z,21.13
2019-02-16T09:54:38.812Z,21.40
2019-02-16T09:57:09.011Z,20.23
2019-02-16T09:59:39.245Z,20.73
2019-02-16T10:02:12.496Z,20.17
2019-02-16T10:04:44.557Z,20.93
2019-02-16T10:07:30.507Z,18.10
2019-02-16T10:10:00.919Z,19.07
2019-02-16T10:12:46.479Z,17.97
2019-02-16T10:15:19.173Z,18.17
2019-02-16T10:18:00.963Z,18.33
2019-02-16T10:20:31.186Z,17.27
2019-02-16T10:23:01.391Z,18.50
2019-02-16T10:25:31.608Z,18.70
2019-02-16T10:28:13.887Z,19.10
2019-02-16T10:30:46.567Z,18.57
2019-02-16T10:33:22.524Z,16.50
2019-02-16T10:35:55.180Z,16.33
2019-02-16T10:38:25.377Z,17.23
2019-02-16T10:41:07.380Z,19.80
2019-02-16T10:43:37.599Z,20.67
2019-02-16T10:46:24.472Z,18.13
2019-02-16T10:49:07.082Z,22.83
2019-02-16T10:51:37.408Z,26.27
2019-02-16T10:54:10.608Z,19.50
2019-02-16T10:56:40.834Z,16.97
2019-02-16T10:59:18.656Z,18.00
2019-02-16T11:01:48.768Z,15.80
2019-02-16T11:04:24.561Z,16.93
2019-02-16T11:06:57.727Z,18.00
2019-02-16T11:09:36.807Z,20.17
2019-02-16T11:12:07.038Z,20.60
2019-02-16T11:14:39.976Z,18.30
2019-02-16T11:17:10.198Z,16.53
2019-02-16T11:19:58.668Z,20.80
2019-02-16T11:22:28.893Z,15.17
2019-02-16T11:24:59.092Z,23.63
2019-02-16T11:27:29.304Z,29.20
2019-02-16T11:30:02.479Z,19.20
2019-02-16T11:32:32.695Z,18.03
2019-02-16T11:35:10.272Z,17.90
2019-02-16T11:37:40.652Z,17.37
2019-02-16T11:40:10.853Z,18.63
2019-02-16T11:42:47.120Z,18.47
2019-02-16T11:45:23.124Z,16.90
2019-02-16T11:48:18.309Z,17.60
2019-02-16T11:51:03.549Z,17.23
2019-02-16T11:53:51.669Z,18.53
2019-02-16T11:56:27.776Z,16.77
2019-02-16T11:59:03.575Z,16.47
2019-02-16T12:01:50.020Z,16.93
2019-02-16T12:04:29.048Z,21.33
2019-02-16T12:07:05.264Z,19.67
2019-02-16T12:09:38.452Z,43.73
2019-02-16T12:12:08.648Z,20.40
2019-02-16T12:14:53.951Z,16.97
2019-02-16T12:17:40.402Z,16.97
2019-02-16T12:20:33.579Z,25.67
2019-02-16T12:23:05.495Z,18.03
2019-02-16T12:25:35.699Z,17.10
2019-02-16T12:28:05.925Z,22.90
2019-02-16T12:30:38.918Z,20.43
2019-02-16T12:36:11.281Z,17.93
2019-02-16T12:38:47.372Z,18.77
2019-02-16T12:41:17.576Z,18.80
2019-02-16T12:43:53.949Z,17.57
2019-02-16T12:46:26.611Z,17.97
2019-02-16T12:49:02.831Z,16.60
2019-02-16T12:51:33.037Z,18.67
2019-02-16T12:54:06.357Z,17.67
2019-02-16T12:56:42.754Z,17.83
2019-02-16T12:59:12.978Z,18.30
2019-02-16T13:02:01.460Z,18.70
2019-02-16T13:04:31.773Z,25.23
2019-02-16T13:07:17.108Z,20.20
2019-02-16T13:09:50.038Z,18.27
2019-02-16T13:12:28.836Z,19.20
2019-02-16T13:15:05.024Z,27.43
2019-02-16T13:17:50.321Z,21.13
2019-02-16T13:20:26.372Z,20.60
2019-02-16T13:22:56.576Z,19.50
2019-02-16T13:25:26.800Z,19.50
2019-02-16T13:27:59.780Z,26.13
2019-02-16T13:30:34.029Z,22.63
2019-02-16T13:33:21.070Z,18.87
2019-02-16T13:36:00.485Z,18.10
2019-02-16T13:38:33.576Z,48.17
2019-02-16T13:41:09.589Z,19.23
2019-02-16T13:43:39.787Z,18.87
2019-02-16T13:46:15.833Z,19.70
2019-02-16T13:48:46.101Z,21.27
2019-02-16T13:51:35.312Z,22.77
2019-02-16T13:54:14.192Z,37.33
2019-02-16T13:59:45.269Z,20.70
2019-02-16T14:02:33.593Z,22.43
2019-02-16T14:05:03.976Z,22.23
2019-02-16T14:07:50.524Z,21.47
2019-02-16T14:10:32.834Z,34.10
2019-02-16T14:15:57.651Z,33.20
2019-02-16T14:18:26.213Z,23.07
2019-02-16T14:20:54.800Z,23.00
2019-02-16T14:23:23.373Z,23.30
2019-02-16T14:25:52.117Z,22.70
2019-02-16T14:28:20.670Z,29.40
2019-02-16T14:30:49.252Z,26.20
2019-02-16T14:33:17.818Z,21.37
2019-02-16T14:35:46.395Z,27.20
2019-02-16T14:38:16.668Z,21.43
2019-02-16T14:40:45.253Z,23.00
2019-02-16T14:43:13.825Z,20.40
2019-02-16T14:45:42.405Z,22.63
2019-02-16T14:48:11.060Z,23.57
2019-02-16T14:50:39.698Z,21.67
2019-02-16T14:53:08.258Z,22.90
2019-02-16T14:55:36.868Z,22.20
2019-02-16T14:58:05.420Z,30.07
2019-02-16T15:00:34.071Z,22.67
2019-02-16T15:03:02.648Z,26.93
2019-02-16T15:05:31.296Z,23.37
2019-02-16T15:08:00.326Z,21.00
2019-02-16T15:10:28.885Z,22.17
2019-02-16T15:12:57.537Z,23.00
2019-02-16T15:15:26.040Z,23.17
2019-02-16T15:17:54.627Z,23.73
2019-02-16T15:20:23.190Z,23.83
2019-02-16T15:22:51.772Z,23.90
2019-02-16T15:25:20.342Z,26.33
2019-02-16T15:27:49.000Z,23.33
2019-02-16T15:30:21.319Z,22.97
2019-02-16T15:32:49.968Z,21.43
2019-02-16T15:35:20.478Z,21.03
2019-02-16T15:37:48.915Z,23.47
2019-02-16T15:40:17.475Z,22.70
2019-02-16T15:42:46.052Z,23.03
2019-02-16T15:45:15.052Z,22.73
2019-02-16T15:47:43.624Z,22.23
2019-02-16T15:50:15.436Z,20.97
2019-02-16T15:52:44.131Z,23.17
2019-02-16T15:55:13.059Z,25.47
2019-02-16T15:57:41.645Z,22.13
2019-02-16T16:00:16.504Z,22.13
2019-02-16T16:02:45.180Z,23.27
2019-02-16T16:05:13.891Z,24.30
2019-02-16T16:07:44.113Z,22.17
2019-02-16T16:10:20.143Z,22.23
2019-02-16T16:12:50.371Z,25.63
2019-02-16T16:15:29.518Z,27.47
2019-02-16T16:18:05.765Z,27.13
2019-02-16T16:20:36.036Z,23.53
2019-02-16T16:23:18.300Z,23.00
2019-02-16T16:25:48.514Z,26.17
2019-02-16T16:28:33.820Z,27.63
2019-02-16T16:31:19.207Z,26.30
2019-02-16T16:34:05.469Z,24.80
2019-02-16T16:36:38.382Z,27.63
2019-02-16T16:39:08.988Z,28.93
2019-02-16T16:41:44.912Z,24.57
2019-02-16T16:44:15.137Z,23.43
2019-02-16T16:46:48.309Z,24.90
2019-02-16T16:49:24.544Z,25.23
2019-02-16T16:52:00.827Z,25.80
2019-02-16T16:54:37.022Z,25.10
2019-02-16T16:57:07.213Z,25.60
2019-02-16T16:59:37.643Z,27.23
2019-02-16T17:02:10.746Z,26.57
2019-02-16T17:04:52.806Z,26.03
2019-02-16T17:07:24.786Z,26.77
2019-02-16T17:10:03.951Z,26.07
2019-02-16T17:12:37.053Z,28.40
2019-02-16T17:15:11.148Z,28.60
2019-02-16T17:17:47.199Z,30.73
2019-02-16T17:20:20.132Z,32.87
2019-02-16T17:22:50.329Z,33.90
2019-02-16T17:25:29.705Z,30.70
2019-02-16T17:28:02.959Z,29.47
2019-02-16T17:30:34.905Z,27.23
2019-02-16T17:33:08.330Z,28.87
2019-02-16T17:35:50.492Z,27.83
2019-02-16T17:38:20.718Z,26.87
2019-02-16T17:41:07.268Z,30.67
2019-02-16T17:43:37.485Z,28.97
2019-02-16T17:46:07.680Z,26.17
2019-02-16T17:48:54.189Z,28.37
2019-02-16T17:51:33.331Z,25.63
2019-02-16T17:54:08.395Z,24.27
2019-02-16T17:56:46.804Z,23.73
2019-02-16T17:59:28.109Z,23.53
2019-02-16T18:01:58.446Z,27.97
2019-02-16T18:04:31.466Z,27.23
2019-02-16T18:07:01.648Z,25.40
2019-02-16T18:09:37.626Z,24.07
2019-02-16T18:12:16.819Z,24.57
2019-02-16T18:14:52.744Z,27.73
2019-02-16T18:17:22.941Z,31.47
2019-02-16T18:19:53.156Z,32.47
2019-02-16T18:22:23.375Z,31.67
2019-02-16T18:25:09.522Z,30.43
2019-02-16T18:27:45.722Z,30.30
2019-02-16T18:30:21.466Z,30.63
2019-02-16T18:33:03.435Z,30.87
2019-02-16T18:35:50.119Z,34.90
2019-02-16T18:38:28.776Z,33.43
2019-02-16T18:40:59.002Z,29.77
2019-02-16T18:43:32.019Z,27.17
2019-02-16T18:46:05.301Z,27.47
2019-02-16T18:48:50.805Z,27.17
2019-02-16T18:51:37.546Z,33.70
2019-02-16T18:54:20.043Z,31.87
2019-02-16T18:56:53.283Z,31.77
2019-02-16T18:59:32.555Z,45.10
2019-02-16T19:02:05.957Z,45.90
2019-02-16T19:04:41.884Z,40.00
2019-02-16T19:07:17.658Z,34.40
2019-02-16T19:09:50.643Z,35.17
2019-02-16T19:12:27.083Z,33.60
2019-02-16T19:15:13.628Z,40.83
2019-02-16T19:17:43.857Z,51.30
2019-02-16T19:20:16.514Z,44.03
2019-02-16T19:22:53.077Z,39.63
2019-02-16T19:25:26.222Z,34.53
2019-02-16T19:28:05.436Z,34.43
2019-02-16T19:30:35.632Z,34.13
2019-02-16T19:33:05.901Z,31.33
2019-02-16T19:35:51.148Z,30.93
2019-02-16T19:38:25.350Z,31.30
2019-02-16T19:41:04.632Z,36.00
2019-02-16T19:43:46.894Z,42.07
2019-02-16T19:46:20.173Z,38.70
2019-02-16T19:48:53.233Z,34.80
2019-02-16T19:51:29.525Z,34.10
2019-02-16T19:54:02.432Z,34.53
2019-02-16T19:56:38.128Z,36.47
2019-02-16T19:59:10.969Z,31.20
2019-02-16T20:01:49.732Z,33.30
2019-02-16T20:04:36.456Z,32.63
2019-02-16T20:07:22.853Z,35.67
2019-02-16T20:09:55.852Z,32.97
2019-02-16T20:12:26.128Z,31.00
2019-02-16T20:14:56.359Z,31.50
2019-02-16T20:17:32.828Z,30.27
2019-02-16T20:20:05.912Z,29.40
2019-02-16T20:22:38.807Z,31.17
2019-02-16T20:25:11.630Z,32.23
2019-02-16T20:27:41.841Z,37.33
2019-02-16T20:30:12.124Z,42.63
2019-02-16T20:32:45.280Z,41.60
2019-02-16T20:35:31.706Z,44.77
2019-02-16T20:38:04.746Z,41.70
2019-02-16T20:40:34.964Z,41.43
2019-02-16T20:43:05.171Z,35.33
2019-02-16T20:45:35.393Z,35.33
2019-02-16T20:48:17.917Z,34.43
2019-02-16T20:51:06.691Z,35.90
2019-02-16T20:53:49.033Z,36.57
2019-02-16T20:56:37.413Z,41.67
2019-02-16T20:59:16.335Z,39.30
2019-02-16T21:01:49.291Z,37.93
2019-02-16T21:04:35.866Z,39.90
2019-02-16T21:07:06.140Z,44.57
2019-02-16T21:09:48.368Z,35.10
2019-02-16T21:12:24.055Z,33.70
2019-02-16T21:14:54.260Z,32.67
2019-02-16T21:17:38.666Z,33.30
2019-02-16T21:20:27.232Z,38.33
2019-02-16T21:23:25.832Z,33.70
2019-02-16T21:25:58.719Z,34.73
2019-02-16T21:28:45.125Z,38.67
2019-02-16T21:31:18.408Z,38.23
2019-02-16T21:33:48.679Z,37.40
2019-02-16T21:36:24.847Z,34.43
2019-02-16T21:39:03.411Z,37.63
2019-02-16T21:41:36.177Z,33.83
2019-02-16T21:44:24.901Z,36.43
2019-02-16T21:47:10.116Z,38.70
2019-02-16T21:49:49.231Z,40.43
2019-02-16T21:55:13.060Z,41.60
2019-02-16T21:57:46.497Z,36.93
2019-02-16T22:00:22.708Z,33.27
2019-02-16T22:03:09.189Z,38.77
2019-02-16T22:05:45.124Z,41.97
2019-02-16T22:08:15.528Z,39.40
2019-02-16T22:10:45.832Z,41.27
2019-02-16T22:13:14.392Z,40.53
2019-02-16T22:15:42.993Z,37.63
2019-02-16T22:18:11.623Z,36.00
2019-02-16T22:20:40.210Z,43.53
2019-02-16T22:23:08.766Z,44.50
2019-02-16T22:25:37.348Z,39.73
2019-02-16T22:28:05.913Z,35.83
2019-02-16T22:30:34.507Z,33.43
2019-02-16T22:33:03.082Z,31.93
2019-02-16T22:35:31.736Z,32.23
2019-02-16T22:38:00.295Z,34.23
2019-02-16T22:40:28.882Z,33.93
2019-02-16T22:42:57.452Z,47.20
2019-02-16T22:45:26.069Z,73.57
2019-02-16T22:47:54.640Z,50.00
2019-02-16T22:50:23.204Z,40.30
2019-02-16T22:52:51.792Z,39.03
2019-02-16T22:55:20.352Z,38.00
2019-02-16T22:57:48.934Z,39.37
2019-02-16T23:00:37.555Z,36.13
2019-02-16T23:03:07.589Z,37.20
2019-02-16T23:05:36.153Z,38.17
2019-02-16T23:08:04.877Z,36.70
2019-02-16T23:10:33.580Z,35.60
2019-02-16T23:13:02.195Z,34.17
2019-02-16T23:15:30.834Z,34.60
2019-02-16T23:17:59.478Z,39.90
2019-02-16T23:20:28.036Z,38.80
2019-02-16T23:22:56.639Z,38.57
2019-02-16T23:25:25.194Z,34.87
2019-02-16T23:27:53.775Z,33.40
2019-02-16T23:30:22.580Z,32.60
2019-02-16T23:32:51.233Z,35.40
2019-02-16T23:35:20.292Z,40.30
2019-02-16T23:37:48.882Z,34.87
2019-02-16T23:40:17.444Z,33.63
2019-02-16T23:42:46.032Z,31.97
2019-02-16T23:45:14.662Z,33.37
2019-02-16T23:47:43.243Z,34.40
2019-02-16T23:50:11.947Z,33.97
2019-02-16T23:52:40.540Z,35.67
2019-02-16T23:55:11.016Z,30.00
2019-02-16T23:57:39.600Z,29.00
